Ben Hur, Texas
Current Conditions -  °F | °C
As of 8:51 PM on Wednesday 26 Nov 2014 (Local Time) from KACT Reporting Station
Clear Clear  
Wind Chill: 50°   Ceiling: Unl
Heat Index: 50°   Visibility: 10mi
Dew Point: 36°   Wind: 7mph
Humidity: 59%   Direction: 340°NNW
Pressure: 30.33"   Gusts: NA
Location:  31.5521°N, 96.8628°W
Report Text: KACT 270251Z 34006KT 10SM CLR 10/02 A3033 RMK AO2 SLP268 T01000022 51029
Loading
Personal Weather Stations






























Interactive Weather Map New forecast layout! Learn more

10-Day Weather Forecast

Advertisements
Track Severe Weather on mobile